Blue Ridge, Canada
Current Conditions -  °F | °C
As of 10:00 PM on Sunday 23 Nov 2014 (Local Time) from CYZU Reporting Station
Broken Clouds Broken Clouds  
Wind Chill: 11°   Ceiling: 3000
Heat Index: 19°   Visibility: 15mi
Dew Point: 18°   Wind: 6mph
Humidity: 93%   Direction: 280°W
Pressure: 29.75"   Gusts: NA
Location:  54.12°N, 115.38°W
Report Text: CYZU 240500Z 28005KT 15SM BKN030 M07/M08 A2975 RMK SC7 LAST OBS/NEXT 241300Z SLP128
Loading
Personal Weather Stations






























Interactive Weather Map New forecast layout! Learn more

10-Day Weather Forecast

Advertisements
Track Severe Weather on mobile